Sea Duck — 9HA3668 — position and weather

sailwx.info

Track history (hours):
 
Tides and Currents Weather Stations Pressure Air Temp Water Temp Dewpoint Dewpoint Depression Visibility Wind Speed Wind Dir Waves Ship Positions

Sea Duck

Last reported at 2018-Jan-04 16:50 UTC. Time now 2018-Jan-19 13:27 UTC.
Position S 28°51' E 033°02'.
Warning: this ship's position is 14 days out of date.

Length 120 m; draft 5.2 m.

Type: Ship. MMSI: 229858000.

Date/timePositionNaut miles runAvg speedWind from/ knotsBaromVisibWave heightAir tempDewpointWater temp
2018-Jan-04 16:50S 28°51' E 033°02'3310.8
2018-Jan-04 13:47S 29°07' E 032°29'411.0
2018-Jan-04 13:23S 29°10' E 032°25'611.4
2018-Jan-04 12:48S 29°13' E 032°18'311.5
2018-Jan-04 12:31S 29°15' E 032°15'611.3
2018-Jan-04 11:58S 29°18' E 032°09'1311.0
2018-Jan-04 10:44S 29°25' E 031°56'210.5
2018-Jan-04 10:30S 29°26' E 031°53'510.3
2018-Jan-04 10:01S 29°28' E 031°48'611.6
2018-Jan-04 09:30S 29°31' E 031°42'611.9
2018-Jan-04 09:00S 29°34' E 031°36'612.3
2018-Jan-04 08:30S 29°38' E 031°30'612.3
2018-Jan-04 08:00S 29°42' E 031°25'612.2
2018-Jan-04 07:30S 29°45' E 031°19'611.9
2018-Jan-04 07:01S 29°48' E 031°13'611.7
2018-Jan-04 06:31S 29°51' E 031°07'5 9.0
2018-Jan-04 06:01S 29°53' E 031°03'0 0.9
2018-Jan-04 05:28S 29°53' E 031°02'0 0.0
2018-Jan-04 04:58S 29°53' E 031°02'0 0.0
2018-Jan-04 04:28S 29°53' E 031°02'0 0.0
2018-Jan-04 03:58S 29°53' E 031°02'0 0.0
2018-Jan-04 03:28S 29°53' E 031°02'0 0.0
2018-Jan-04 02:58S 29°53' E 031°02'0 0.0
2018-Jan-04 02:19S 29°53' E 031°02'0 0.0
2018-Jan-04 01:58S 29°53' E 031°02'0 0.0
2018-Jan-04 01:28S 29°53' E 031°02'0 0.0
2018-Jan-04 00:58S 29°53' E 031°02'0 0.0
2018-Jan-04 00:28S 29°53' E 031°02'0 0.0
2018-Jan-03 23:58S 29°53' E 031°02'0 0.0
2018-Jan-03 23:28S 29°53' E 031°02'0 0.0
2018-Jan-03 22:58S 29°53' E 031°02'0 0.0
2018-Jan-03 22:28S 29°53' E 031°02'0 0.0
2018-Jan-03 21:58S 29°53' E 031°02'0 0.0
2018-Jan-03 21:28S 29°53' E 031°02'0 0.0
2018-Jan-03 20:58S 29°53' E 031°02'0 0.0
2018-Jan-03 20:31S 29°53' E 031°02'0 0.0
2018-Jan-03 20:00S 29°53' E 031°02'0 0.0
2018-Jan-03 19:30S 29°53' E 031°02'0 0.1
2018-Jan-03 19:00S 29°53' E 031°02'0 0.2
2018-Jan-03 18:30S 29°53' E 031°02'3 5.8
2018-Jan-03 18:00S 29°51' E 031°04'3 5.4
2018-Jan-03 17:30S 29°49' E 031°06'0 0.5
2018-Jan-03 17:01S 29°49' E 031°06'0 0.5
2018-Jan-03 16:30S 29°49' E 031°06'3 5.1
2018-Jan-03 16:00S 29°46' E 031°07'3 6.8
2018-Jan-03 15:30S 29°43' E 031°09'2 4.5
2018-Jan-03 15:00S 29°41' E 031°10'2 4.5
2018-Jan-03 14:30S 29°39' E 031°12'2 4.9
2018-Jan-03 14:01S 29°37' E 031°13'1 1.2
2018-Jan-03 13:28S 29°37' E 031°13'1 1.2
2018-Jan-03 12:58S 29°37' E 031°13'1 1.7
2018-Jan-03 12:27S 29°36' E 031°13'0 0.3
2018-Jan-03 11:51S 29°37' E 031°13'0 0.1
2018-Jan-03 11:27S 29°37' E 031°13'0 0.0
2018-Jan-03 10:57S 29°37' E 031°13'0 0.0
2018-Jan-03 10:27S 29°37' E 031°13'0 0.0
2018-Jan-03 09:57S 29°37' E 031°13'0 0.0
2018-Jan-03 09:27S 29°37' E 031°13'0 0.0
2018-Jan-03 08:57S 29°37' E 031°13'0 0.0
2018-Jan-03 08:27S 29°37' E 031°13'0 0.0
2018-Jan-03 07:57S 29°37' E 031°13'0 0.0
2018-Jan-03 07:27S 29°37' E 031°13'0 0.0
2018-Jan-03 06:57S 29°37' E 031°13'0 0.0
2018-Jan-03 06:27S 29°37' E 031°13'0 0.0
2018-Jan-03 05:57S 29°37' E 031°13'0 0.0
2018-Jan-03 05:27S 29°37' E 031°13'0 0.0
2018-Jan-03 04:57S 29°37' E 031°13'0 0.0
2018-Jan-03 04:30S 29°37' E 031°13'0 0.0
2018-Jan-03 04:00S 29°37' E 031°13'0 0.0
2018-Jan-03 03:27S 29°37' E 031°13'0 0.0
2018-Jan-03 03:00S 29°37' E 031°13'0 0.0
2018-Jan-03 02:21S 29°37' E 031°13'0 0.0
2018-Jan-03 01:57S 29°37' E 031°13'0 0.0
2018-Jan-03 01:27S 29°37' E 031°13'0 0.0
2018-Jan-03 00:57S 29°37' E 031°13'0 0.0
2018-Jan-03 00:30S 29°37' E 031°13'0 0.0
2018-Jan-02 23:57S 29°37' E 031°13'0 0.0
2018-Jan-02 23:30S 29°37' E 031°13'0 0.0
2018-Jan-02 22:57S 29°37' E 031°13'0 0.0
2018-Jan-02 22:30S 29°37' E 031°13'0 0.0
2018-Jan-02 22:00S 29°37' E 031°13'0 0.1
2018-Jan-02 21:30S 29°37' E 031°13'0 0.0
2018-Jan-02 21:00S 29°37' E 031°13'0 0.0
2018-Jan-02 20:27S 29°37' E 031°13'0 0.0
2018-Jan-02 20:00S 29°37' E 031°13'0 0.0
2018-Jan-02 19:30S 29°37' E 031°13'0 0.0
2018-Jan-02 18:54S 29°37' E 031°13'0 0.0
2018-Jan-02 18:30S 29°37' E 031°13'0 0.0
2018-Jan-02 18:00S 29°37' E 031°13'0 0.0
2018-Jan-02 17:30S 29°37' E 031°13'0 0.0
2018-Jan-02 17:00S 29°37' E 031°13'0 0.0
2018-Jan-02 16:30S 29°37' E 031°13'0 0.0
2018-Jan-02 15:57S 29°37' E 031°13'0 0.0
2018-Jan-02 15:27S 29°37' E 031°13'0 0.0
2018-Jan-02 15:00S 29°37' E 031°13'0 0.0
2018-Jan-02 14:27S 29°37' E 031°13'0 0.0
2018-Jan-02 13:57S 29°37' E 031°13'0 0.0
2018-Jan-02 13:27S 29°37' E 031°13'0 0.0
2018-Jan-02 12:57S 29°37' E 031°13'0 0.0
2018-Jan-02 12:27S 29°37' E 031°13'0 0.0
2018-Jan-02 11:57S 29°37' E 031°13'0 0.0
2018-Jan-02 11:30S 29°37' E 031°13'0 0.0
2018-Jan-02 11:00S 29°37' E 031°13'0 0.0
2018-Jan-02 10:27S 29°37' E 031°13'0 0.0
2018-Jan-02 10:00S 29°37' E 031°13'0 0.0
2018-Jan-02 09:27S 29°37' E 031°13'0 0.0
2018-Jan-02 08:30S 29°37' E 031°13'0 0.0
2018-Jan-02 07:57S 29°37' E 031°13'0 0.0
2018-Jan-02 07:27S 29°37' E 031°13'0 0.0
2018-Jan-02 06:51S 29°37' E 031°13'0 0.0
2018-Jan-02 06:27S 29°37' E 031°13'0 0.0
2018-Jan-02 05:57S 29°37' E 031°13'0 0.0
2018-Jan-02 05:30S 29°37' E 031°13'0 0.0
2018-Jan-02 04:30S 29°37' E 031°13'0 0.0
2018-Jan-02 03:57S 29°37' E 031°13'0 0.0
2018-Jan-02 03:27S 29°37' E 031°13'0 0.0
2018-Jan-02 03:00S 29°37' E 031°13'0 0.0
2018-Jan-02 02:21S 29°37' E 031°13'0 0.0
2018-Jan-02 02:00S 29°37' E 031°13'0 0.0
2018-Jan-02 01:27S 29°37' E 031°13'0 0.0
2018-Jan-02 01:00S 29°37' E 031°13'0 0.0
2018-Jan-02 00:30S 29°37' E 031°13'0 0.0
2018-Jan-02 00:00S 29°37' E 031°13'0 0.0
2018-Jan-01 23:30S 29°37' E 031°13'0 0.0
2018-Jan-01 22:57S 29°37' E 031°13'0 0.0
2018-Jan-01 22:30S 29°37' E 031°13'0 0.0
2018-Jan-01 22:00S 29°37' E 031°13'0 0.0
2018-Jan-01 21:27S 29°37' E 031°13'0 0.0
2018-Jan-01 21:00S 29°37' E 031°13'0 0.0
2018-Jan-01 20:30S 29°37' E 031°13'0 0.0
2018-Jan-01 20:00S 29°37' E 031°13'0 0.0
2018-Jan-01 19:30S 29°37' E 031°13'0 0.0
2018-Jan-01 19:00S 29°37' E 031°13'0 0.0
2018-Jan-01 18:30S 29°37' E 031°13'0 0.0
2018-Jan-01 18:00S 29°37' E 031°13'0 0.0
2018-Jan-01 17:30S 29°37' E 031°13'2 0.6
2018-Jan-01 15:00S 29°38' E 031°13'0 0.0
2018-Jan-01 14:30S 29°38' E 031°13'0 0.0
2018-Jan-01 14:00S 29°38' E 031°13'0 0.0
2018-Jan-01 13:27S 29°38' E 031°13'0 0.0
2018-Jan-01 12:57S 29°38' E 031°13'0 0.1
2018-Jan-01 12:00S 29°38' E 031°13'0 0.5
2018-Jan-01 11:30S 29°38' E 031°12'0 0.1
2018-Jan-01 10:57S 29°38' E 031°12'0 0.0
2018-Jan-01 10:27S 29°38' E 031°12'0 0.0
2018-Jan-01 10:00S 29°38' E 031°12'0 0.0
2018-Jan-01 09:30S 29°38' E 031°12'0 0.0
2018-Jan-01 08:27S 29°38' E 031°12'0 0.0
2018-Jan-01 07:57S 29°38' E 031°12'0 0.0
2018-Jan-01 07:21S 29°38' E 031°12'0 0.0
2018-Jan-01 07:00S 29°38' E 031°12'0 0.0
2018-Jan-01 06:00S 29°38' E 031°12'0 0.0
2018-Jan-01 05:30S 29°38' E 031°12'0 0.0
2018-Jan-01 04:57S 29°38' E 031°12'0 0.0
2018-Jan-01 03:57S 29°38' E 031°12'0 0.0
2018-Jan-01 03:30S 29°38' E 031°12'0 0.0
2018-Jan-01 02:57S 29°38' E 031°12'0 0.0
2018-Jan-01 02:18S 29°38' E 031°12'0 0.0
2018-Jan-01 02:00S 29°38' E 031°12'0 0.0
2018-Jan-01 01:27S 29°38' E 031°12'0 0.0
2018-Jan-01 00:27S 29°38' E 031°12'0 0.0
2017-Dec-31 21:00S 29°38' E 031°12'0 0.1
2017-Dec-31 20:30S 29°38' E 031°12'0 0.0
2017-Dec-31 19:57S 29°38' E 031°12'0 0.0
2017-Dec-31 19:30S 29°38' E 031°12'0 0.0
2017-Dec-31 19:00S 29°38' E 031°12'0 0.0
2017-Dec-31 18:30S 29°38' E 031°12'0 0.0
2017-Dec-31 18:00S 29°38' E 031°12'0 0.0
2017-Dec-31 17:30S 29°38' E 031°12'0 0.0
2017-Dec-31 17:00S 29°38' E 031°12'0 0.0
2017-Dec-31 16:30S 29°38' E 031°12'0 0.0
2017-Dec-31 16:00S 29°38' E 031°12'0 0.0
2017-Dec-31 15:30S 29°38' E 031°12'0 0.0
2017-Dec-31 14:57S 29°38' E 031°12'0 0.0
2017-Dec-31 14:30S 29°38' E 031°12'0 0.0
2017-Dec-31 13:57S 29°38' E 031°12'0 0.0
2017-Dec-31 13:27S 29°38' E 031°12'0 0.0
2017-Dec-31 12:57S 29°38' E 031°12'0 0.0
2017-Dec-31 12:27S 29°38' E 031°12'0 0.0
2017-Dec-31 11:57S 29°38' E 031°12'0 0.0
2017-Dec-31 11:27S 29°38' E 031°12'0 0.0
2017-Dec-31 11:00S 29°38' E 031°12'0 0.0
2017-Dec-31 10:30S 29°38' E 031°12'0 0.0
2017-Dec-31 10:00S 29°38' E 031°12'0 0.0
2017-Dec-31 09:27S 29°38' E 031°12'0 0.0
2017-Dec-31 09:00S 29°38' E 031°12'0 0.0
2017-Dec-31 08:27S 29°38' E 031°12'0 0.0
2017-Dec-31 08:00S 29°38' E 031°12'0 0.0
2017-Dec-31 07:27S 29°38' E 031°12'0 0.0
2017-Dec-31 07:00S 29°38' E 031°12'0 0.0
2017-Dec-31 06:30S 29°38' E 031°12'0 0.0
2017-Dec-31 05:57S 29°38' E 031°12'0 0.0
2017-Dec-31 05:30S 29°38' E 031°12'0 0.0
2017-Dec-31 05:00S 29°38' E 031°12'0 0.0
2017-Dec-31 04:30S 29°38' E 031°12'0 0.0
2017-Dec-31 04:00S 29°38' E 031°12'0 0.0
2017-Dec-31 03:30S 29°38' E 031°12'0 0.0
2017-Dec-31 03:00S 29°38' E 031°12'0 0.0
2017-Dec-31 02:21S 29°38' E 031°12'0 0.0
2017-Dec-31 01:57S 29°38' E 031°12'0 0.0
2017-Dec-31 01:30S 29°38' E 031°12'0 0.0
2017-Dec-31 01:00S 29°38' E 031°12'0 0.0
2017-Dec-31 00:30S 29°38' E 031°12'0 0.0
2017-Dec-30 23:57S 29°38' E 031°12'0 0.0
2017-Dec-30 23:30S 29°38' E 031°12'0 0.1
2017-Dec-30 23:00S 29°38' E 031°12'0 0.1
2017-Dec-30 22:30S 29°38' E 031°12'0 0.0
2017-Dec-30 22:00S 29°38' E 031°12'0 0.0
2017-Dec-30 21:27S 29°38' E 031°12'0 0.0
2017-Dec-30 21:00S 29°38' E 031°12'0 0.0
2017-Dec-30 20:30S 29°38' E 031°12'0 0.0
2017-Dec-30 20:00S 29°38' E 031°12'0 0.1
2017-Dec-30 19:30S 29°38' E 031°12'0 0.3
2017-Dec-30 19:00S 29°38' E 031°13'2 3.3
2017-Dec-30 18:30S 29°40' E 031°13'4 7.0
2017-Dec-30 18:00S 29°43' E 031°15'2 3.7
2017-Dec-30 17:30S 29°44' E 031°14'0 0.1
2017-Dec-30 17:00S 29°44' E 031°14'0 0.4
2017-Dec-30 16:30S 29°44' E 031°14'0 0.0
2017-Dec-30 16:00S 29°44' E 031°14'0 0.1
2017-Dec-30 15:30S 29°44' E 031°14'0 0.2
2017-Dec-30 15:00S 29°44' E 031°15'0 0.3
2017-Dec-30 14:30S 29°44' E 031°15'1 1.6
2017-Dec-30 14:00S 29°44' E 031°14'0 0.1
2017-Dec-30 13:30S 29°44' E 031°14'1 0.9
2017-Dec-30 12:55S 29°43' E 031°14'0 0.0
2017-Dec-30 12:25S 29°43' E 031°14'0 0.0
2017-Dec-30 11:55S 29°43' E 031°14'0 0.0
2017-Dec-30 11:28S 29°43' E 031°14'0 0.0
2017-Dec-30 10:55S 29°43' E 031°14'0 0.0
2017-Dec-30 10:25S 29°43' E 031°14'0 0.0
2017-Dec-30 09:55S 29°43' E 031°14'0 0.0
2017-Dec-30 09:25S 29°43' E 031°14'0 0.0
2017-Dec-30 08:58S 29°43' E 031°14'0 0.0
2017-Dec-30 08:25S 29°43' E 031°14'0 0.0
2017-Dec-30 07:55S 29°43' E 031°14'0 0.0
2017-Dec-30 07:25S 29°43' E 031°14'0 0.1
2017-Dec-30 06:58S 29°43' E 031°14'1 1.5
2017-Dec-30 06:30S 29°44' E 031°14'4 7.7
2017-Dec-30 06:01S 29°47' E 031°12'5 9.4
2017-Dec-30 05:30S 29°52' E 031°10'5 9.3
2017-Dec-30 05:00S 29°56' E 031°11'5 9.8
2017-Dec-30 04:30S 30°01' E 031°11'510.1
2017-Dec-30 04:01S 30°06' E 031°09'5 9.9
2017-Dec-30 03:31S 30°10' E 031°05'510.1
2017-Dec-30 03:01S 30°14' E 031°03'6 9.9
2017-Dec-30 02:23S 30°20' E 030°59'4 9.5
2017-Dec-30 02:00S 30°23' E 030°57'5 9.0
2017-Dec-30 01:24S 30°28' E 030°54'  
Track history (hours):
 
Tides and Currents Weather Stations Pressure Air Temp Water Temp Dewpoint Dewpoint Depression Visibility Wind Speed Wind Dir Waves Ship Positions

Sea Duck

Last reported at 2018-Jan-04 16:50 UTC. Time now 2018-Jan-19 13:27 UTC.
Position S 28°51' E 033°02'.
Warning: this ship's position is 14 days out of date.

Length 120 m; draft 5.2 m.

Type: Ship. MMSI: 229858000.

Date/timePositionNaut miles runAvg speedWind from/ knotsBaromVisibWave heightAir tempDewpointWater temp
2018-Jan-04 16:50S 28°51' E 033°02'3310.8
2018-Jan-04 13:47S 29°07' E 032°29'411.0
2018-Jan-04 13:23S 29°10' E 032°25'611.4
2018-Jan-04 12:48S 29°13' E 032°18'311.5
2018-Jan-04 12:31S 29°15' E 032°15'611.3
2018-Jan-04 11:58S 29°18' E 032°09'1311.0
2018-Jan-04 10:44S 29°25' E 031°56'210.5
2018-Jan-04 10:30S 29°26' E 031°53'510.3
2018-Jan-04 10:01S 29°28' E 031°48'611.6
2018-Jan-04 09:30S 29°31' E 031°42'611.9
2018-Jan-04 09:00S 29°34' E 031°36'612.3
2018-Jan-04 08:30S 29°38' E 031°30'612.3
2018-Jan-04 08:00S 29°42' E 031°25'612.2
2018-Jan-04 07:30S 29°45' E 031°19'611.9
2018-Jan-04 07:01S 29°48' E 031°13'611.7
2018-Jan-04 06:31S 29°51' E 031°07'5 9.0
2018-Jan-04 06:01S 29°53' E 031°03'0 0.9
2018-Jan-04 05:28S 29°53' E 031°02'0 0.0
2018-Jan-04 04:58S 29°53' E 031°02'0 0.0
2018-Jan-04 04:28S 29°53' E 031°02'0 0.0
2018-Jan-04 03:58S 29°53' E 031°02'0 0.0
2018-Jan-04 03:28S 29°53' E 031°02'0 0.0
2018-Jan-04 02:58S 29°53' E 031°02'0 0.0
2018-Jan-04 02:19S 29°53' E 031°02'0 0.0
2018-Jan-04 01:58S 29°53' E 031°02'0 0.0
2018-Jan-04 01:28S 29°53' E 031°02'0 0.0
2018-Jan-04 00:58S 29°53' E 031°02'0 0.0
2018-Jan-04 00:28S 29°53' E 031°02'0 0.0
2018-Jan-03 23:58S 29°53' E 031°02'0 0.0
2018-Jan-03 23:28S 29°53' E 031°02'0 0.0
2018-Jan-03 22:58S 29°53' E 031°02'0 0.0
2018-Jan-03 22:28S 29°53' E 031°02'0 0.0
2018-Jan-03 21:58S 29°53' E 031°02'0 0.0
2018-Jan-03 21:28S 29°53' E 031°02'0 0.0
2018-Jan-03 20:58S 29°53' E 031°02'0 0.0
2018-Jan-03 20:31S 29°53' E 031°02'0 0.0
2018-Jan-03 20:00S 29°53' E 031°02'0 0.0
2018-Jan-03 19:30S 29°53' E 031°02'0 0.1
2018-Jan-03 19:00S 29°53' E 031°02'0 0.2
2018-Jan-03 18:30S 29°53' E 031°02'3 5.8
2018-Jan-03 18:00S 29°51' E 031°04'3 5.4
2018-Jan-03 17:30S 29°49' E 031°06'0 0.5
2018-Jan-03 17:01S 29°49' E 031°06'0 0.5
2018-Jan-03 16:30S 29°49' E 031°06'3 5.1
2018-Jan-03 16:00S 29°46' E 031°07'3 6.8
2018-Jan-03 15:30S 29°43' E 031°09'2 4.5
2018-Jan-03 15:00S 29°41' E 031°10'2 4.5
2018-Jan-03 14:30S 29°39' E 031°12'2 4.9
2018-Jan-03 14:01S 29°37' E 031°13'1 1.2
2018-Jan-03 13:28S 29°37' E 031°13'1 1.2
2018-Jan-03 12:58S 29°37' E 031°13'1 1.7
2018-Jan-03 12:27S 29°36' E 031°13'0 0.3
2018-Jan-03 11:51S 29°37' E 031°13'0 0.1
2018-Jan-03 11:27S 29°37' E 031°13'0 0.0
2018-Jan-03 10:57S 29°37' E 031°13'0 0.0
2018-Jan-03 10:27S 29°37' E 031°13'0 0.0
2018-Jan-03 09:57S 29°37' E 031°13'0 0.0
2018-Jan-03 09:27S 29°37' E 031°13'0 0.0
2018-Jan-03 08:57S 29°37' E 031°13'0 0.0
2018-Jan-03 08:27S 29°37' E 031°13'0 0.0
2018-Jan-03 07:57S 29°37' E 031°13'0 0.0
2018-Jan-03 07:27S 29°37' E 031°13'0 0.0
2018-Jan-03 06:57S 29°37' E 031°13'0 0.0
2018-Jan-03 06:27S 29°37' E 031°13'0 0.0
2018-Jan-03 05:57S 29°37' E 031°13'0 0.0
2018-Jan-03 05:27S 29°37' E 031°13'0 0.0
2018-Jan-03 04:57S 29°37' E 031°13'0 0.0
2018-Jan-03 04:30S 29°37' E 031°13'0 0.0
2018-Jan-03 04:00S 29°37' E 031°13'0 0.0
2018-Jan-03 03:27S 29°37' E 031°13'0 0.0
2018-Jan-03 03:00S 29°37' E 031°13'0 0.0
2018-Jan-03 02:21S 29°37' E 031°13'0 0.0
2018-Jan-03 01:57S 29°37' E 031°13'0 0.0
2018-Jan-03 01:27S 29°37' E 031°13'0 0.0
2018-Jan-03 00:57S 29°37' E 031°13'0 0.0
2018-Jan-03 00:30S 29°37' E 031°13'0 0.0
2018-Jan-02 23:57S 29°37' E 031°13'0 0.0
2018-Jan-02 23:30S 29°37' E 031°13'0 0.0
2018-Jan-02 22:57S 29°37' E 031°13'0 0.0
2018-Jan-02 22:30S 29°37' E 031°13'0 0.0
2018-Jan-02 22:00S 29°37' E 031°13'0 0.1
2018-Jan-02 21:30S 29°37' E 031°13'0 0.0
2018-Jan-02 21:00S 29°37' E 031°13'0 0.0
2018-Jan-02 20:27S 29°37' E 031°13'0 0.0
2018-Jan-02 20:00S 29°37' E 031°13'0 0.0
2018-Jan-02 19:30S 29°37' E 031°13'0 0.0
2018-Jan-02 18:54S 29°37' E 031°13'0 0.0
2018-Jan-02 18:30S 29°37' E 031°13'0 0.0
2018-Jan-02 18:00S 29°37' E 031°13'0 0.0
2018-Jan-02 17:30S 29°37' E 031°13'0 0.0
2018-Jan-02 17:00S 29°37' E 031°13'0 0.0
2018-Jan-02 16:30S 29°37' E 031°13'0 0.0
2018-Jan-02 15:57S 29°37' E 031°13'0 0.0
2018-Jan-02 15:27S 29°37' E 031°13'0 0.0
2018-Jan-02 15:00S 29°37' E 031°13'0 0.0
2018-Jan-02 14:27S 29°37' E 031°13'0 0.0
2018-Jan-02 13:57S 29°37' E 031°13'0 0.0
2018-Jan-02 13:27S 29°37' E 031°13'0 0.0
2018-Jan-02 12:57S 29°37' E 031°13'0 0.0
2018-Jan-02 12:27S 29°37' E 031°13'0 0.0
2018-Jan-02 11:57S 29°37' E 031°13'0 0.0
2018-Jan-02 11:30S 29°37' E 031°13'0 0.0
2018-Jan-02 11:00S 29°37' E 031°13'0 0.0
2018-Jan-02 10:27S 29°37' E 031°13'0 0.0
2018-Jan-02 10:00S 29°37' E 031°13'0 0.0
2018-Jan-02 09:27S 29°37' E 031°13'0 0.0
2018-Jan-02 08:30S 29°37' E 031°13'0 0.0
2018-Jan-02 07:57S 29°37' E 031°13'0 0.0
2018-Jan-02 07:27S 29°37' E 031°13'0 0.0
2018-Jan-02 06:51S 29°37' E 031°13'0 0.0
2018-Jan-02 06:27S 29°37' E 031°13'0 0.0
2018-Jan-02 05:57S 29°37' E 031°13'0 0.0
2018-Jan-02 05:30S 29°37' E 031°13'0 0.0
2018-Jan-02 04:30S 29°37' E 031°13'0 0.0
2018-Jan-02 03:57S 29°37' E 031°13'0 0.0
2018-Jan-02 03:27S 29°37' E 031°13'0 0.0
2018-Jan-02 03:00S 29°37' E 031°13'0 0.0
2018-Jan-02 02:21S 29°37' E 031°13'0 0.0
2018-Jan-02 02:00S 29°37' E 031°13'0 0.0
2018-Jan-02 01:27S 29°37' E 031°13'0 0.0
2018-Jan-02 01:00S 29°37' E 031°13'0 0.0
2018-Jan-02 00:30S 29°37' E 031°13'0 0.0
2018-Jan-02 00:00S 29°37' E 031°13'0 0.0
2018-Jan-01 23:30S 29°37' E 031°13'0 0.0
2018-Jan-01 22:57S 29°37' E 031°13'0 0.0
2018-Jan-01 22:30S 29°37' E 031°13'0 0.0
2018-Jan-01 22:00S 29°37' E 031°13'0 0.0
2018-Jan-01 21:27S 29°37' E 031°13'0 0.0
2018-Jan-01 21:00S 29°37' E 031°13'0 0.0
2018-Jan-01 20:30S 29°37' E 031°13'0 0.0
2018-Jan-01 20:00S 29°37' E 031°13'0 0.0
2018-Jan-01 19:30S 29°37' E 031°13'0 0.0
2018-Jan-01 19:00S 29°37' E 031°13'0 0.0
2018-Jan-01 18:30S 29°37' E 031°13'0 0.0
2018-Jan-01 18:00S 29°37' E 031°13'0 0.0
2018-Jan-01 17:30S 29°37' E 031°13'2 0.6
2018-Jan-01 15:00S 29°38' E 031°13'0 0.0
2018-Jan-01 14:30S 29°38' E 031°13'0 0.0
2018-Jan-01 14:00S 29°38' E 031°13'0 0.0
2018-Jan-01 13:27S 29°38' E 031°13'0 0.0
2018-Jan-01 12:57S 29°38' E 031°13'0 0.1
2018-Jan-01 12:00S 29°38' E 031°13'0 0.5
2018-Jan-01 11:30S 29°38' E 031°12'0 0.1
2018-Jan-01 10:57S 29°38' E 031°12'0 0.0
2018-Jan-01 10:27S 29°38' E 031°12'0 0.0
2018-Jan-01 10:00S 29°38' E 031°12'0 0.0
2018-Jan-01 09:30S 29°38' E 031°12'0 0.0
2018-Jan-01 08:27S 29°38' E 031°12'0 0.0
2018-Jan-01 07:57S 29°38' E 031°12'0 0.0
2018-Jan-01 07:21S 29°38' E 031°12'0 0.0
2018-Jan-01 07:00S 29°38' E 031°12'0 0.0
2018-Jan-01 06:00S 29°38' E 031°12'0 0.0
2018-Jan-01 05:30S 29°38' E 031°12'0 0.0
2018-Jan-01 04:57S 29°38' E 031°12'0 0.0
2018-Jan-01 03:57S 29°38' E 031°12'0 0.0
2018-Jan-01 03:30S 29°38' E 031°12'0 0.0
2018-Jan-01 02:57S 29°38' E 031°12'0 0.0
2018-Jan-01 02:18S 29°38' E 031°12'0 0.0
2018-Jan-01 02:00S 29°38' E 031°12'0 0.0
2018-Jan-01 01:27S 29°38' E 031°12'0 0.0
2018-Jan-01 00:27S 29°38' E 031°12'0 0.0
2017-Dec-31 21:00S 29°38' E 031°12'0 0.1
2017-Dec-31 20:30S 29°38' E 031°12'0 0.0
2017-Dec-31 19:57S 29°38' E 031°12'0 0.0
2017-Dec-31 19:30S 29°38' E 031°12'0 0.0
2017-Dec-31 19:00S 29°38' E 031°12'0 0.0
2017-Dec-31 18:30S 29°38' E 031°12'0 0.0
2017-Dec-31 18:00S 29°38' E 031°12'0 0.0
2017-Dec-31 17:30S 29°38' E 031°12'0 0.0
2017-Dec-31 17:00S 29°38' E 031°12'0 0.0
2017-Dec-31 16:30S 29°38' E 031°12'0 0.0
2017-Dec-31 16:00S 29°38' E 031°12'0 0.0
2017-Dec-31 15:30S 29°38' E 031°12'0 0.0
2017-Dec-31 14:57S 29°38' E 031°12'0 0.0
2017-Dec-31 14:30S 29°38' E 031°12'0 0.0
2017-Dec-31 13:57S 29°38' E 031°12'0 0.0
2017-Dec-31 13:27S 29°38' E 031°12'0 0.0
2017-Dec-31 12:57S 29°38' E 031°12'0 0.0
2017-Dec-31 12:27S 29°38' E 031°12'0 0.0
2017-Dec-31 11:57S 29°38' E 031°12'0 0.0
2017-Dec-31 11:27S 29°38' E 031°12'0 0.0
2017-Dec-31 11:00S 29°38' E 031°12'0 0.0
2017-Dec-31 10:30S 29°38' E 031°12'0 0.0
2017-Dec-31 10:00S 29°38' E 031°12'0 0.0
2017-Dec-31 09:27S 29°38' E 031°12'0 0.0
2017-Dec-31 09:00S 29°38' E 031°12'0 0.0
2017-Dec-31 08:27S 29°38' E 031°12'0 0.0
2017-Dec-31 08:00S 29°38' E 031°12'0 0.0
2017-Dec-31 07:27S 29°38' E 031°12'0 0.0
2017-Dec-31 07:00S 29°38' E 031°12'0 0.0
2017-Dec-31 06:30S 29°38' E 031°12'0 0.0
2017-Dec-31 05:57S 29°38' E 031°12'0 0.0
2017-Dec-31 05:30S 29°38' E 031°12'0 0.0
2017-Dec-31 05:00S 29°38' E 031°12'0 0.0
2017-Dec-31 04:30S 29°38' E 031°12'0 0.0
2017-Dec-31 04:00S 29°38' E 031°12'0 0.0
2017-Dec-31 03:30S 29°38' E 031°12'0 0.0
2017-Dec-31 03:00S 29°38' E 031°12'0 0.0
2017-Dec-31 02:21S 29°38' E 031°12'0 0.0
2017-Dec-31 01:57S 29°38' E 031°12'0 0.0
2017-Dec-31 01:30S 29°38' E 031°12'0 0.0
2017-Dec-31 01:00S 29°38' E 031°12'0 0.0
2017-Dec-31 00:30S 29°38' E 031°12'0 0.0
2017-Dec-30 23:57S 29°38' E 031°12'0 0.0
2017-Dec-30 23:30S 29°38' E 031°12'0 0.1
2017-Dec-30 23:00S 29°38' E 031°12'0 0.1
2017-Dec-30 22:30S 29°38' E 031°12'0 0.0
2017-Dec-30 22:00S 29°38' E 031°12'0 0.0
2017-Dec-30 21:27S 29°38' E 031°12'0 0.0
2017-Dec-30 21:00S 29°38' E 031°12'0 0.0
2017-Dec-30 20:30S 29°38' E 031°12'0 0.0
2017-Dec-30 20:00S 29°38' E 031°12'0 0.1
2017-Dec-30 19:30S 29°38' E 031°12'0 0.3
2017-Dec-30 19:00S 29°38' E 031°13'2 3.3
2017-Dec-30 18:30S 29°40' E 031°13'4 7.0
2017-Dec-30 18:00S 29°43' E 031°15'2 3.7
2017-Dec-30 17:30S 29°44' E 031°14'0 0.1
2017-Dec-30 17:00S 29°44' E 031°14'0 0.4
2017-Dec-30 16:30S 29°44' E 031°14'0 0.0
2017-Dec-30 16:00S 29°44' E 031°14'0 0.1
2017-Dec-30 15:30S 29°44' E 031°14'0 0.2
2017-Dec-30 15:00S 29°44' E 031°15'0 0.3
2017-Dec-30 14:30S 29°44' E 031°15'1 1.6
2017-Dec-30 14:00S 29°44' E 031°14'0 0.1
2017-Dec-30 13:30S 29°44' E 031°14'1 0.9
2017-Dec-30 12:55S 29°43' E 031°14'0 0.0
2017-Dec-30 12:25S 29°43' E 031°14'0 0.0
2017-Dec-30 11:55S 29°43' E 031°14'0 0.0
2017-Dec-30 11:28S 29°43' E 031°14'0 0.0
2017-Dec-30 10:55S 29°43' E 031°14'0 0.0
2017-Dec-30 10:25S 29°43' E 031°14'0 0.0
2017-Dec-30 09:55S 29°43' E 031°14'0 0.0
2017-Dec-30 09:25S 29°43' E 031°14'0 0.0
2017-Dec-30 08:58S 29°43' E 031°14'0 0.0
2017-Dec-30 08:25S 29°43' E 031°14'0 0.0
2017-Dec-30 07:55S 29°43' E 031°14'0 0.0
2017-Dec-30 07:25S 29°43' E 031°14'0 0.1
2017-Dec-30 06:58S 29°43' E 031°14'1 1.5
2017-Dec-30 06:30S 29°44' E 031°14'4 7.7
2017-Dec-30 06:01S 29°47' E 031°12'5 9.4
2017-Dec-30 05:30S 29°52' E 031°10'5 9.3
2017-Dec-30 05:00S 29°56' E 031°11'5 9.8
2017-Dec-30 04:30S 30°01' E 031°11'510.1
2017-Dec-30 04:01S 30°06' E 031°09'5 9.9
2017-Dec-30 03:31S 30°10' E 031°05'510.1
2017-Dec-30 03:01S 30°14' E 031°03'6 9.9
2017-Dec-30 02:23S 30°20' E 030°59'4 9.5
2017-Dec-30 02:00S 30°23' E 030°57'5 9.0
2017-Dec-30 01:24S 30°28' E 030°54'  

Dump ship's entire track history